createdAt,value
2023-05-21T00:02:30.108Z,3.22
2023-05-21T00:04:58.455Z,2.67
2023-05-21T00:07:27.301Z,3.15
2023-05-21T00:09:57.057Z,3.15
2023-05-21T00:12:25.593Z,3.30
2023-05-21T00:14:54.230Z,3.33
2023-05-21T00:17:26.177Z,3.30
2023-05-21T00:19:54.494Z,3.22
2023-05-21T00:22:23.261Z,3.30
2023-05-21T00:24:52.582Z,3.50
2023-05-21T00:27:21.083Z,2.97
2023-05-21T00:29:49.418Z,3.13
2023-05-21T00:32:17.657Z,3.20
2023-05-21T00:34:47.549Z,3.25
2023-05-21T00:37:16.335Z,3.17
2023-05-21T00:39:44.485Z,3.42
2023-05-21T00:42:18.173Z,3.35
2023-05-21T00:44:46.435Z,3.80
2023-05-21T00:47:18.195Z,3.30
2023-05-21T00:49:48.209Z,3.70
2023-05-21T00:52:20.200Z,2.97
2023-05-21T00:54:50.579Z,3.13
2023-05-21T00:57:20.864Z,3.25
2023-05-21T00:59:52.799Z,3.20
2023-05-21T01:02:24.165Z,3.78
2023-05-21T01:04:56.410Z,3.15
2023-05-21T01:07:24.584Z,3.10
2023-05-21T01:09:54.201Z,3.40
2023-05-21T01:12:24.419Z,3.47
2023-05-21T01:14:53.493Z,3.25
2023-05-21T01:17:24.318Z,3.65
2023-05-21T01:19:54.932Z,3.45
2023-05-21T01:22:24.786Z,3.72
2023-05-21T01:24:57.967Z,4.00
2023-05-21T01:27:26.370Z,4.35
2023-05-21T01:29:54.908Z,3.95
2023-05-21T01:32:34.661Z,4.00
2023-05-21T01:35:10.281Z,4.20
2023-05-21T01:37:52.573Z,3.80
2023-05-21T01:40:30.831Z,3.72
2023-05-21T01:43:00.830Z,3.38
2023-05-21T01:45:32.978Z,3.97
2023-05-21T01:48:01.955Z,4.13
2023-05-21T01:50:31.881Z,4.32
2023-05-21T01:53:00.953Z,3.67
2023-05-21T01:55:31.272Z,4.10
2023-05-21T01:58:02.711Z,4.25
2023-05-21T02:00:32.618Z,4.03
2023-05-21T02:03:01.076Z,4.05
2023-05-21T02:05:30.399Z,3.90
2023-05-21T02:08:00.009Z,4.45
2023-05-21T02:10:28.466Z,3.67
2023-05-21T02:12:59.275Z,4.15
2023-05-21T02:15:27.787Z,3.90
2023-05-21T02:17:56.076Z,3.53
2023-05-21T02:20:24.415Z,3.92
2023-05-21T02:22:52.774Z,3.78
2023-05-21T02:25:21.189Z,3.80
2023-05-21T02:27:53.446Z,3.92
2023-05-21T02:30:23.280Z,4.00
2023-05-21T02:32:51.607Z,3.78
2023-05-21T02:35:19.850Z,4.13
2023-05-21T02:37:48.923Z,4.03
2023-05-21T02:40:17.667Z,3.80
2023-05-21T02:42:45.962Z,4.28
2023-05-21T02:45:19.798Z,3.60
2023-05-21T02:47:49.709Z,4.20
2023-05-21T02:50:22.343Z,3.92
2023-05-21T02:52:56.813Z,4.00
2023-05-21T02:55:25.142Z,4.07
2023-05-21T02:57:53.624Z,3.88
2023-05-21T03:00:22.195Z,4.55
2023-05-21T03:02:52.202Z,4.20
2023-05-21T03:05:20.685Z,3.90
2023-05-21T03:07:48.902Z,3.85
2023-05-21T03:10:17.263Z,3.72
2023-05-21T03:12:48.325Z,4.28
2023-05-21T03:15:23.905Z,4.10
2023-05-21T03:17:54.192Z,4.07
2023-05-21T03:20:22.548Z,4.20
2023-05-21T03:22:50.854Z,4.57
2023-05-21T03:25:20.083Z,4.43
2023-05-21T03:27:48.549Z,4.28
2023-05-21T03:30:35.236Z,4.47
2023-05-21T03:33:31.040Z,4.07
2023-05-21T03:35:59.385Z,3.95
2023-05-21T03:38:30.650Z,4.07
2023-05-21T03:40:58.858Z,4.75
2023-05-21T03:43:27.110Z,4.10
2023-05-21T03:45:56.506Z,4.57
2023-05-21T03:48:44.579Z,4.38
2023-05-21T03:51:15.957Z,4.20
2023-05-21T03:53:44.149Z,4.72
2023-05-21T03:56:12.379Z,4.05
2023-05-21T03:58:40.789Z,4.57
2023-05-21T04:01:10.592Z,5.43
2023-05-21T04:03:40.739Z,4.43
2023-05-21T04:06:11.205Z,4.88
2023-05-21T04:08:43.234Z,4.45
2023-05-21T04:11:11.412Z,4.70
2023-05-21T04:13:40.542Z,4.22
2023-05-21T04:16:09.782Z,4.50
2023-05-21T04:18:38.808Z,4.30
2023-05-21T04:21:09.993Z,4.68
2023-05-21T04:23:39.631Z,4.72
2023-05-21T04:26:16.229Z,4.25
2023-05-21T04:28:45.839Z,4.47
2023-05-21T04:31:15.782Z,4.90
2023-05-21T04:33:45.992Z,4.55
2023-05-21T04:36:17.171Z,4.38
2023-05-21T04:38:48.715Z,4.80
2023-05-21T04:41:18.715Z,4.47
2023-05-21T04:43:46.868Z,4.50
2023-05-21T04:46:16.526Z,4.68
2023-05-21T04:48:45.117Z,3.92
2023-05-21T04:51:15.029Z,4.90
2023-05-21T04:53:43.132Z,4.97
2023-05-21T04:56:12.616Z,4.63
2023-05-21T04:58:41.594Z,5.05
2023-05-21T05:01:09.774Z,5.22
2023-05-21T05:03:37.928Z,4.90
2023-05-21T05:06:07.804Z,5.43
2023-05-21T05:08:36.465Z,5.20
2023-05-21T05:11:05.724Z,4.70
2023-05-21T05:13:35.366Z,4.90
2023-05-21T05:16:03.607Z,5.38
2023-05-21T05:18:32.072Z,4.97
2023-05-21T05:21:00.230Z,5.25
2023-05-21T05:23:28.491Z,4.72
2023-05-21T05:25:56.647Z,5.10
2023-05-21T05:28:24.807Z,5.50
2023-05-21T05:30:54.958Z,4.70
2023-05-21T05:33:31.788Z,5.10
2023-05-21T05:35:59.968Z,5.20
2023-05-21T05:38:28.229Z,5.38
2023-05-21T05:40:56.493Z,5.22
2023-05-21T05:43:26.513Z,5.20
2023-05-21T05:45:56.385Z,5.60
2023-05-21T05:48:25.169Z,5.13
2023-05-21T05:50:56.033Z,5.32
2023-05-21T05:53:26.638Z,5.35
2023-05-21T05:55:55.487Z,5.43
2023-05-21T05:58:23.547Z,5.53
2023-05-21T06:01:06.703Z,5.05
2023-05-21T06:03:35.072Z,5.82
2023-05-21T06:06:11.218Z,5.65
2023-05-21T06:08:40.444Z,5.93
2023-05-21T06:11:08.790Z,5.45
2023-05-21T06:13:37.180Z,5.45
2023-05-21T06:16:09.910Z,5.55
2023-05-21T06:18:38.764Z,5.55
2023-05-21T06:21:07.121Z,5.20
2023-05-21T06:23:37.643Z,5.57
2023-05-21T06:26:06.262Z,5.43
2023-05-21T06:28:34.488Z,5.35
2023-05-21T06:31:02.752Z,5.32
2023-05-21T06:33:34.266Z,5.80
2023-05-21T06:36:02.564Z,5.53
2023-05-21T06:38:31.056Z,6.03
2023-05-21T06:41:00.008Z,5.97
2023-05-21T06:43:46.933Z,5.38
2023-05-21T06:46:35.853Z,5.95
2023-05-21T06:49:09.304Z,5.80
2023-05-21T06:51:37.498Z,5.60
2023-05-21T06:54:06.688Z,6.20
2023-05-21T06:56:36.615Z,6.65
2023-05-21T06:59:14.325Z,5.97
2023-05-21T07:01:46.574Z,6.30
2023-05-21T07:04:20.354Z,5.82
2023-05-21T07:06:48.969Z,6.10
2023-05-21T07:09:18.272Z,6.05
2023-05-21T07:11:47.118Z,6.22
2023-05-21T07:14:17.532Z,6.28
2023-05-21T07:16:45.910Z,6.00
2023-05-21T07:19:17.820Z,6.03
2023-05-21T07:21:46.988Z,5.70
2023-05-21T07:24:15.138Z,6.07
2023-05-21T07:26:44.230Z,6.43
2023-05-21T07:29:13.350Z,6.70
2023-05-21T07:31:42.002Z,6.63
2023-05-21T07:34:10.486Z,6.38
2023-05-21T07:36:42.510Z,6.75
2023-05-21T07:39:11.045Z,5.75
2023-05-21T07:41:40.006Z,6.38
2023-05-21T07:44:14.601Z,6.70
2023-05-21T07:46:45.020Z,6.30
2023-05-21T07:49:16.770Z,6.50
2023-05-21T07:51:48.028Z,6.10
2023-05-21T07:54:58.653Z,6.65
2023-05-21T07:57:28.206Z,6.03
2023-05-21T08:00:00.109Z,6.68
2023-05-21T08:02:32.131Z,5.88
2023-05-21T08:10:53.568Z,7.28
2023-05-21T08:13:26.063Z,6.05
2023-05-21T08:16:00.378Z,6.40
2023-05-21T08:18:58.253Z,6.18
2023-05-21T08:39:42.941Z,6.32
2023-05-21T08:42:37.573Z,7.25
2023-05-21T08:45:09.692Z,5.65
2023-05-21T08:47:44.362Z,7.15
2023-05-21T08:50:15.326Z,7.18
2023-05-21T08:52:43.923Z,7.13
2023-05-21T08:55:23.161Z,6.78
2023-05-21T08:58:22.076Z,7.50
2023-05-21T09:00:58.088Z,6.88
2023-05-21T09:03:31.816Z,6.72
2023-05-21T09:06:01.483Z,6.65
2023-05-21T09:08:44.864Z,7.15
2023-05-21T09:11:28.961Z,7.07
2023-05-21T09:14:01.804Z,6.93
2023-05-21T09:16:40.827Z,6.50
2023-05-21T09:19:32.474Z,7.72
2023-05-21T09:22:04.601Z,7.10
2023-05-21T09:29:30.143Z,7.00
2023-05-21T09:36:36.380Z,6.63
2023-05-21T09:53:54.263Z,8.18
2023-05-21T09:57:54.826Z,7.82
2023-05-21T10:03:36.401Z,7.50
2023-05-21T10:05:27.107Z,8.80
2023-05-21T10:14:02.054Z,7.10
2023-05-21T10:16:33.569Z,8.80
2023-05-21T10:25:35.966Z,7.97
2023-05-21T10:28:19.739Z,8.73
2023-05-21T10:32:00.919Z,8.38
2023-05-21T10:34:44.352Z,8.48
2023-05-21T10:37:17.488Z,8.98
2023-05-21T10:39:52.472Z,8.40
2023-05-21T10:42:42.707Z,8.80
2023-05-21T10:46:05.619Z,8.57
2023-05-21T10:54:07.420Z,8.25
2023-05-21T11:29:47.226Z,8.10
2023-05-21T11:32:38.328Z,9.18
2023-05-21T11:35:08.779Z,8.70
2023-05-21T11:37:40.465Z,8.77
2023-05-21T11:40:22.446Z,9.07
2023-05-21T11:42:55.473Z,8.93
2023-05-21T11:45:31.152Z,9.27
2023-05-21T11:48:00.215Z,9.48
2023-05-21T11:50:30.891Z,9.80
2023-05-21T11:53:00.921Z,9.05
2023-05-21T11:55:39.974Z,9.82
2023-05-21T11:58:09.145Z,9.88
2023-05-21T12:00:44.500Z,9.82
2023-05-21T12:03:16.813Z,9.55
2023-05-21T12:06:13.535Z,9.15
2023-05-21T12:08:43.139Z,8.75
2023-05-21T12:11:22.931Z,9.10
2023-05-21T12:14:00.200Z,9.27
2023-05-21T12:16:35.159Z,9.38
2023-05-21T12:20:32.363Z,8.07
2023-05-21T12:23:19.567Z,8.52
2023-05-21T12:26:05.058Z,8.15
2023-05-21T12:28:34.838Z,8.60
2023-05-21T12:31:02.987Z,10.00
2023-05-21T12:37:24.570Z,8.93
2023-05-21T12:40:00.002Z,8.80
2023-05-21T12:42:31.003Z,9.77
2023-05-21T12:45:01.885Z,9.75
2023-05-21T12:47:31.558Z,9.98
2023-05-21T12:50:01.500Z,9.45
2023-05-21T12:52:30.811Z,9.60
2023-05-21T12:55:00.962Z,9.38
2023-05-21T12:57:38.458Z,10.18
2023-05-21T13:00:11.479Z,9.05
2023-05-21T13:02:42.301Z,10.30
2023-05-21T13:05:17.296Z,9.00
2023-05-21T13:07:47.651Z,9.77
2023-05-21T13:10:17.629Z,9.15
2023-05-21T13:12:47.401Z,9.35
2023-05-21T13:15:17.216Z,9.98
2023-05-21T13:17:50.097Z,9.57
2023-05-21T13:20:21.681Z,8.73
2023-05-21T13:22:53.565Z,9.43
2023-05-21T13:25:24.902Z,9.60
2023-05-21T13:27:54.615Z,10.63
2023-05-21T13:30:27.494Z,9.20
2023-05-21T13:32:56.212Z,9.57
2023-05-21T13:35:24.606Z,9.00
2023-05-21T13:38:00.649Z,9.23
2023-05-21T13:40:31.289Z,8.45
2023-05-21T13:43:03.376Z,10.35
2023-05-21T13:45:34.053Z,9.25
2023-05-21T13:48:09.127Z,9.57
2023-05-21T13:50:41.304Z,9.32
2023-05-21T13:53:17.809Z,9.55
2023-05-21T13:55:49.157Z,9.90
2023-05-21T13:58:19.004Z,9.10
2023-05-21T14:00:53.759Z,9.50
2023-05-21T14:03:22.837Z,9.35
2023-05-21T14:05:53.664Z,8.45
2023-05-21T14:08:23.655Z,9.13
2023-05-21T14:10:52.041Z,9.60
2023-05-21T14:13:21.311Z,8.90
2023-05-21T14:15:51.855Z,9.57
2023-05-21T14:18:20.256Z,9.20
2023-05-21T14:20:55.434Z,9.93
2023-05-21T14:23:24.045Z,9.82
2023-05-21T14:25:52.474Z,8.95
2023-05-21T14:28:21.802Z,9.13
2023-05-21T14:30:55.407Z,9.30
2023-05-21T14:33:25.567Z,9.32
2023-05-21T14:35:54.273Z,10.10
2023-05-21T14:38:23.411Z,9.30
2023-05-21T14:40:52.126Z,10.10
2023-05-21T14:43:20.806Z,10.23
2023-05-21T14:45:52.713Z,9.55
2023-05-21T14:48:23.275Z,10.25
2023-05-21T14:50:54.797Z,10.27
2023-05-21T14:54:30.460Z,10.65
2023-05-21T14:57:02.066Z,9.70
2023-05-21T14:59:33.940Z,11.30
2023-05-21T15:02:36.492Z,10.43
2023-05-21T15:05:08.576Z,9.57
2023-05-21T15:07:37.394Z,9.63
2023-05-21T15:14:36.553Z,9.73
2023-05-21T15:17:06.519Z,9.60
2023-05-21T15:19:35.106Z,8.82
2023-05-21T15:22:11.797Z,8.85
2023-05-21T15:24:40.645Z,9.02
2023-05-21T15:28:39.830Z,8.55
2023-05-21T15:35:01.686Z,8.60
2023-05-21T15:37:33.198Z,8.68
2023-05-21T15:41:07.928Z,8.80
2023-05-21T15:44:35.621Z,8.75
2023-05-21T15:47:29.302Z,9.88
2023-05-21T15:56:16.555Z,9.02
2023-05-21T15:59:30.882Z,8.93
2023-05-21T16:25:05.735Z,9.80
2023-05-21T17:27:36.923Z,10.05
2023-05-21T17:30:12.570Z,9.07
2023-05-21T17:32:41.194Z,9.43
2023-05-21T17:35:11.174Z,9.68
2023-05-21T17:37:39.787Z,10.27
2023-05-21T17:40:14.000Z,11.13
2023-05-21T17:42:45.618Z,10.93
2023-05-21T17:45:18.546Z,10.77
2023-05-21T17:48:00.403Z,11.70
2023-05-21T17:55:03.534Z,12.35
2023-05-21T17:57:35.996Z,11.20
2023-05-21T18:12:08.869Z,11.10
2023-05-21T18:14:37.479Z,11.90
2023-05-21T18:17:06.966Z,12.18
2023-05-21T18:19:58.150Z,10.63
2023-05-21T18:22:36.801Z,11.85
2023-05-21T18:25:10.643Z,10.90
2023-05-21T18:28:15.219Z,11.10
2023-05-21T18:30:44.234Z,11.00
2023-05-21T18:33:26.514Z,11.15
2023-05-21T18:36:04.126Z,11.07
2023-05-21T18:40:08.324Z,11.27
2023-05-21T18:46:26.067Z,11.40
2023-05-21T18:52:47.434Z,12.00
2023-05-21T18:56:17.548Z,11.50
2023-05-21T19:06:44.529Z,11.40
2023-05-21T19:13:21.068Z,11.50
2023-05-21T19:16:01.435Z,11.50
2023-05-21T19:18:37.250Z,10.73
2023-05-21T19:21:32.136Z,11.88
2023-05-21T19:27:50.532Z,11.85
2023-05-21T19:30:23.823Z,12.40
2023-05-21T19:32:58.972Z,11.07
2023-05-21T19:35:37.818Z,11.93
2023-05-21T19:38:23.428Z,12.07
2023-05-21T19:41:01.735Z,11.35
2023-05-21T19:43:52.093Z,11.35
2023-05-21T19:46:34.329Z,11.10
2023-05-21T19:49:02.476Z,8.13
2023-05-21T19:51:31.282Z,6.68
2023-05-21T19:53:59.368Z,6.40
2023-05-21T19:56:28.870Z,5.93
2023-05-21T19:58:57.025Z,5.50
2023-05-21T20:01:25.571Z,5.07
2023-05-21T20:03:53.799Z,5.60
2023-05-21T20:06:21.951Z,4.85
2023-05-21T20:08:51.604Z,4.57
2023-05-21T20:11:20.082Z,4.93
2023-05-21T20:13:50.307Z,4.57
2023-05-21T20:16:19.848Z,4.50
2023-05-21T20:18:48.419Z,4.90
2023-05-21T20:21:18.370Z,4.40
2023-05-21T20:23:47.337Z,4.50
2023-05-21T20:26:16.246Z,4.07
2023-05-21T20:28:44.644Z,4.22
2023-05-21T20:31:14.560Z,3.85
2023-05-21T20:33:43.015Z,3.80
2023-05-21T20:36:11.196Z,4.10
2023-05-21T20:38:41.926Z,3.60
2023-05-21T20:41:10.095Z,3.58
2023-05-21T20:43:38.193Z,3.17
2023-05-21T20:46:06.552Z,3.55
2023-05-21T20:48:37.671Z,3.35
2023-05-21T20:51:06.293Z,3.00
2023-05-21T20:53:34.585Z,3.70
2023-05-21T20:56:02.871Z,3.33
2023-05-21T20:58:31.477Z,3.38
2023-05-21T21:01:01.923Z,4.07
2023-05-21T21:03:33.640Z,3.92
2023-05-21T21:06:04.233Z,3.80
2023-05-21T21:08:34.686Z,3.40
2023-05-21T21:11:03.014Z,3.67
2023-05-21T21:13:31.107Z,3.65
2023-05-21T21:15:59.250Z,3.70
2023-05-21T21:18:27.314Z,3.25
2023-05-21T21:20:55.702Z,3.38
2023-05-21T21:23:28.565Z,3.88
2023-05-21T21:25:57.191Z,3.40
2023-05-21T21:28:25.444Z,3.35
2023-05-21T21:30:53.591Z,3.30
2023-05-21T21:33:24.179Z,4.00
2023-05-21T21:35:52.319Z,3.55
2023-05-21T21:38:20.425Z,3.80
2023-05-21T21:40:49.949Z,3.58
2023-05-21T21:43:18.038Z,3.58
2023-05-21T21:45:46.260Z,3.72
2023-05-21T21:48:16.417Z,3.88
2023-05-21T21:50:44.824Z,3.85
2023-05-21T21:53:13.939Z,3.80
2023-05-21T21:55:42.169Z,3.55
2023-05-21T21:58:11.808Z,3.78
2023-05-21T22:00:40.227Z,3.50
2023-05-21T22:03:08.594Z,3.80
2023-05-21T22:05:36.718Z,3.70
2023-05-21T22:08:05.442Z,3.70
2023-05-21T22:10:37.894Z,4.60
2023-05-21T22:13:06.277Z,4.18
2023-05-21T22:15:36.008Z,4.47
2023-05-21T22:18:04.480Z,4.05
2023-05-21T22:20:33.121Z,3.92
2023-05-21T22:23:01.545Z,3.95
2023-05-21T22:25:29.702Z,3.72
2023-05-21T22:27:57.817Z,4.57
2023-05-21T22:30:25.900Z,4.05
2023-05-21T22:32:56.615Z,4.47
2023-05-21T22:35:25.059Z,4.25
2023-05-21T22:37:53.349Z,4.25
2023-05-21T22:40:21.427Z,4.07
2023-05-21T22:42:49.561Z,4.57
2023-05-21T22:45:18.817Z,4.57
2023-05-21T22:47:48.005Z,4.47
2023-05-21T22:50:17.994Z,4.72
2023-05-21T22:52:46.182Z,5.03
2023-05-21T22:55:14.938Z,4.47
2023-05-21T22:57:43.115Z,4.35
2023-05-21T23:00:12.497Z,5.22
2023-05-21T23:02:40.747Z,5.15
2023-05-21T23:05:09.908Z,5.63
2023-05-21T23:07:39.430Z,5.30
2023-05-21T23:10:09.951Z,5.30
2023-05-21T23:12:38.433Z,6.43
2023-05-21T23:15:07.690Z,6.93
2023-05-21T23:17:36.124Z,6.90
2023-05-21T23:20:04.585Z,7.28
2023-05-21T23:22:32.725Z,6.70
2023-05-21T23:25:02.268Z,7.55
2023-05-21T23:27:30.403Z,7.45
2023-05-21T23:29:58.572Z,7.47
2023-05-21T23:32:27.337Z,7.28
2023-05-21T23:34:56.837Z,6.78
2023-05-21T23:37:24.967Z,7.30
2023-05-21T23:39:53.043Z,6.85
2023-05-21T23:42:22.778Z,7.38
2023-05-21T23:44:50.911Z,7.72
2023-05-21T23:47:19.019Z,7.40
2023-05-21T23:49:47.123Z,7.63
2023-05-21T23:52:17.197Z,8.13
2023-05-21T23:54:45.520Z,7.85
2023-05-21T23:57:14.167Z,7.68
2023-05-21T23:59:43.565Z,8.27
